sensor_id;sensor_type;location;lat;lon;timestamp;P1;durP1;ratioP1;P2;durP2;ratioP2
11427;SDS011;5770;44.504;11.346;2022-08-01T00:01:54;2.45;;;1.98;;
11427;SDS011;5770;44.504;11.346;2022-08-01T00:04:22;4.15;;;2.20;;
11427;SDS011;5770;44.504;11.346;2022-08-01T00:06:49;4.53;;;2.50;;
11427;SDS011;5770;44.504;11.346;2022-08-01T00:09:16;4.18;;;2.10;;
11427;SDS011;5770;44.504;11.346;2022-08-01T00:11:43;2.70;;;2.10;;
11427;SDS011;5770;44.504;11.346;2022-08-01T00:14:10;3.55;;;2.30;;
11427;SDS011;5770;44.504;11.346;2022-08-01T00:16:37;3.03;;;1.85;;
11427;SDS011;5770;44.504;11.346;2022-08-01T00:19:04;3.75;;;2.28;;
11427;SDS011;5770;44.504;11.346;2022-08-01T00:21:33;5.45;;;2.40;;
11427;SDS011;5770;44.504;11.346;2022-08-01T00:24:00;11.00;;;2.70;;
11427;SDS011;5770;44.504;11.346;2022-08-01T00:26:27;3.67;;;2.20;;
11427;SDS011;5770;44.504;11.346;2022-08-01T00:28:54;5.40;;;2.22;;
11427;SDS011;5770;44.504;11.346;2022-08-01T00:31:21;8.52;;;2.50;;
11427;SDS011;5770;44.504;11.346;2022-08-01T00:33:48;9.60;;;2.60;;
11427;SDS011;5770;44.504;11.346;2022-08-01T00:36:15;6.18;;;2.40;;
11427;SDS011;5770;44.504;11.346;2022-08-01T00:38:43;6.07;;;2.25;;
11427;SDS011;5770;44.504;11.346;2022-08-01T00:41:10;4.93;;;2.20;;
11427;SDS011;5770;44.504;11.346;2022-08-01T00:43:37;4.15;;;2.40;;
11427;SDS011;5770;44.504;11.346;2022-08-01T00:46:04;5.05;;;1.98;;
11427;SDS011;5770;44.504;11.346;2022-08-01T00:48:31;4.88;;;2.40;;
11427;SDS011;5770;44.504;11.346;2022-08-01T00:50:58;5.20;;;2.60;;
11427;SDS011;5770;44.504;11.346;2022-08-01T00:53:25;5.32;;;2.78;;
11427;SDS011;5770;44.504;11.346;2022-08-01T00:55:54;4.05;;;2.25;;
11427;SDS011;5770;44.504;11.346;2022-08-01T00:58:22;4.15;;;2.50;;
11427;SDS011;5770;44.504;11.346;2022-08-01T01:00:50;4.47;;;2.47;;
11427;SDS011;5770;44.504;11.346;2022-08-01T01:03:17;8.35;;;2.75;;
11427;SDS011;5770;44.504;11.346;2022-08-01T01:05:45;6.25;;;2.60;;
11427;SDS011;5770;44.504;11.346;2022-08-01T01:08:22;5.63;;;2.53;;
11427;SDS011;5770;44.504;11.346;2022-08-01T01:10:56;3.10;;;2.30;;
11427;SDS011;5770;44.504;11.346;2022-08-01T01:13:30;5.70;;;2.60;;
11427;SDS011;5770;44.504;11.346;2022-08-01T01:16:05;4.18;;;2.40;;
11427;SDS011;5770;44.504;11.346;2022-08-01T01:18:37;3.58;;;2.00;;
11427;SDS011;5770;44.504;11.346;2022-08-01T01:21:11;5.88;;;2.38;;
11427;SDS011;5770;44.504;11.346;2022-08-01T01:23:54;4.18;;;2.40;;
11427;SDS011;5770;44.504;11.346;2022-08-01T01:26:31;2.63;;;2.20;;
11427;SDS011;5770;44.504;11.346;2022-08-01T01:29:11;5.43;;;2.40;;
11427;SDS011;5770;44.504;11.346;2022-08-01T01:31:43;4.63;;;2.13;;
11427;SDS011;5770;44.504;11.346;2022-08-01T01:34:15;3.53;;;2.08;;
11427;SDS011;5770;44.504;11.346;2022-08-01T01:36:44;3.13;;;1.90;;
11427;SDS011;5770;44.504;11.346;2022-08-01T01:39:13;2.03;;;1.83;;
11427;SDS011;5770;44.504;11.346;2022-08-01T01:41:42;2.95;;;1.95;;
11427;SDS011;5770;44.504;11.346;2022-08-01T01:44:12;2.97;;;2.00;;
11427;SDS011;5770;44.504;11.346;2022-08-01T01:46:41;2.60;;;2.05;;
11427;SDS011;5770;44.504;11.346;2022-08-01T01:49:08;3.75;;;1.95;;
11427;SDS011;5770;44.504;11.346;2022-08-01T01:51:38;4.90;;;2.00;;
11427;SDS011;5770;44.504;11.346;2022-08-01T01:54:08;2.20;;;2.00;;
11427;SDS011;5770;44.504;11.346;2022-08-01T01:56:36;2.15;;;1.98;;
11427;SDS011;5770;44.504;11.346;2022-08-01T01:59:16;4.68;;;2.05;;
11427;SDS011;5770;44.504;11.346;2022-08-01T02:01:48;3.22;;;1.98;;
11427;SDS011;5770;44.504;11.346;2022-08-01T02:04:17;2.70;;;2.08;;
11427;SDS011;5770;44.504;11.346;2022-08-01T02:06:46;2.30;;;2.10;;
11427;SDS011;5770;44.504;11.346;2022-08-01T02:09:16;2.20;;;2.00;;
11427;SDS011;5770;44.504;11.346;2022-08-01T02:11:45;2.10;;;1.90;;
11427;SDS011;5770;44.504;11.346;2022-08-01T02:14:16;2.00;;;1.90;;
11427;SDS011;5770;44.504;11.346;2022-08-01T02:16:44;2.15;;;1.90;;
11427;SDS011;5770;44.504;11.346;2022-08-01T02:19:14;2.05;;;1.77;;
11427;SDS011;5770;44.504;11.346;2022-08-01T02:21:44;2.35;;;1.73;;
11427;SDS011;5770;44.504;11.346;2022-08-01T02:24:17;1.83;;;1.70;;
11427;SDS011;5770;44.504;11.346;2022-08-01T02:26:50;4.35;;;1.90;;
11427;SDS011;5770;44.504;11.346;2022-08-01T02:29:21;2.08;;;1.88;;
11427;SDS011;5770;44.504;11.346;2022-08-01T02:31:53;2.88;;;2.00;;
11427;SDS011;5770;44.504;11.346;2022-08-01T02:34:21;2.28;;;1.83;;
11427;SDS011;5770;44.504;11.346;2022-08-01T02:36:51;1.98;;;1.88;;
11427;SDS011;5770;44.504;11.346;2022-08-01T02:39:20;2.13;;;2.03;;
11427;SDS011;5770;44.504;11.346;2022-08-01T02:41:49;2.00;;;1.70;;
11427;SDS011;5770;44.504;11.346;2022-08-01T02:44:26;2.15;;;1.95;;
11427;SDS011;5770;44.504;11.346;2022-08-01T02:46:58;2.00;;;1.90;;
11427;SDS011;5770;44.504;11.346;2022-08-01T02:49:29;2.20;;;1.80;;
11427;SDS011;5770;44.504;11.346;2022-08-01T02:51:59;1.90;;;1.67;;
11427;SDS011;5770;44.504;11.346;2022-08-01T02:54:27;1.90;;;1.80;;
11427;SDS011;5770;44.504;11.346;2022-08-01T02:56:56;2.50;;;1.80;;
11427;SDS011;5770;44.504;11.346;2022-08-01T02:59:27;3.35;;;1.92;;
11427;SDS011;5770;44.504;11.346;2022-08-01T03:01:55;3.22;;;1.77;;
11427;SDS011;5770;44.504;11.346;2022-08-01T03:04:24;1.88;;;1.77;;
11427;SDS011;5770;44.504;11.346;2022-08-01T03:06:52;2.65;;;2.03;;
11427;SDS011;5770;44.504;11.346;2022-08-01T03:09:23;1.90;;;1.80;;
11427;SDS011;5770;44.504;11.346;2022-08-01T03:11:52;1.75;;;1.65;;
11427;SDS011;5770;44.504;11.346;2022-08-01T03:14:23;1.90;;;1.80;;
11427;SDS011;5770;44.504;11.346;2022-08-01T03:16:52;4.03;;;2.17;;
11427;SDS011;5770;44.504;11.346;2022-08-01T03:19:22;1.70;;;1.60;;
11427;SDS011;5770;44.504;11.346;2022-08-01T03:21:52;2.08;;;1.73;;
11427;SDS011;5770;44.504;11.346;2022-08-01T03:24:23;2.72;;;2.03;;
11427;SDS011;5770;44.504;11.346;2022-08-01T03:26:51;2.30;;;1.95;;
11427;SDS011;5770;44.504;11.346;2022-08-01T03:29:22;2.30;;;2.10;;
11427;SDS011;5770;44.504;11.346;2022-08-01T03:31:55;2.35;;;1.90;;
11427;SDS011;5770;44.504;11.346;2022-08-01T03:34:23;2.90;;;2.00;;
11427;SDS011;5770;44.504;11.346;2022-08-01T03:36:52;1.90;;;1.80;;
11427;SDS011;5770;44.504;11.346;2022-08-01T03:39:22;3.35;;;2.03;;
11427;SDS011;5770;44.504;11.346;2022-08-01T03:41:54;2.35;;;2.10;;
11427;SDS011;5770;44.504;11.346;2022-08-01T03:44:32;2.35;;;1.92;;
11427;SDS011;5770;44.504;11.346;2022-08-01T03:47:05;2.03;;;1.85;;
11427;SDS011;5770;44.504;11.346;2022-08-01T03:49:40;3.75;;;2.10;;
11427;SDS011;5770;44.504;11.346;2022-08-01T03:52:09;2.85;;;2.13;;
11427;SDS011;5770;44.504;11.346;2022-08-01T03:54:38;2.78;;;1.85;;
11427;SDS011;5770;44.504;11.346;2022-08-01T03:57:08;5.88;;;2.08;;
11427;SDS011;5770;44.504;11.346;2022-08-01T03:59:36;2.55;;;1.90;;
11427;SDS011;5770;44.504;11.346;2022-08-01T04:02:08;2.30;;;1.80;;
11427;SDS011;5770;44.504;11.346;2022-08-01T04:04:36;2.05;;;1.67;;
11427;SDS011;5770;44.504;11.346;2022-08-01T04:07:03;2.20;;;2.00;;
11427;SDS011;5770;44.504;11.346;2022-08-01T04:09:32;3.75;;;1.88;;
11427;SDS011;5770;44.504;11.346;2022-08-01T04:11:59;2.22;;;1.92;;
11427;SDS011;5770;44.504;11.346;2022-08-01T04:14:27;4.40;;;1.80;;
11427;SDS011;5770;44.504;11.346;2022-08-01T04:16:54;2.25;;;2.00;;
11427;SDS011;5770;44.504;11.346;2022-08-01T04:19:23;2.50;;;1.92;;
11427;SDS011;5770;44.504;11.346;2022-08-01T04:21:51;1.63;;;1.52;;
11427;SDS011;5770;44.504;11.346;2022-08-01T04:24:18;3.63;;;1.83;;
11427;SDS011;5770;44.504;11.346;2022-08-01T04:26:47;5.40;;;2.08;;
11427;SDS011;5770;44.504;11.346;2022-08-01T04:29:15;2.70;;;2.00;;
11427;SDS011;5770;44.504;11.346;2022-08-01T04:31:44;3.72;;;2.03;;
11427;SDS011;5770;44.504;11.346;2022-08-01T04:34:15;2.30;;;2.00;;
11427;SDS011;5770;44.504;11.346;2022-08-01T04:36:45;2.40;;;2.20;;
11427;SDS011;5770;44.504;11.346;2022-08-01T04:39:13;1.88;;;1.77;;
11427;SDS011;5770;44.504;11.346;2022-08-01T04:41:41;3.88;;;2.10;;
11427;SDS011;5770;44.504;11.346;2022-08-01T04:44:11;2.67;;;1.75;;
11427;SDS011;5770;44.504;11.346;2022-08-01T04:46:39;6.20;;;2.38;;
11427;SDS011;5770;44.504;11.346;2022-08-01T04:49:07;3.20;;;1.90;;
11427;SDS011;5770;44.504;11.346;2022-08-01T04:51:34;9.25;;;1.83;;
11427;SDS011;5770;44.504;11.346;2022-08-01T04:54:03;3.95;;;1.90;;
11427;SDS011;5770;44.504;11.346;2022-08-01T04:56:32;2.58;;;1.98;;
11427;SDS011;5770;44.504;11.346;2022-08-01T04:58:59;2.33;;;2.13;;
11427;SDS011;5770;44.504;11.346;2022-08-01T05:01:47;2.85;;;2.08;;
11427;SDS011;5770;44.504;11.346;2022-08-01T05:04:15;2.25;;;2.05;;
11427;SDS011;5770;44.504;11.346;2022-08-01T05:06:42;3.50;;;1.85;;
11427;SDS011;5770;44.504;11.346;2022-08-01T05:09:11;2.72;;;2.20;;
11427;SDS011;5770;44.504;11.346;2022-08-01T05:11:38;2.10;;;1.90;;
11427;SDS011;5770;44.504;11.346;2022-08-01T05:14:05;2.70;;;2.17;;
11427;SDS011;5770;44.504;11.346;2022-08-01T05:16:32;3.85;;;1.80;;
11427;SDS011;5770;44.504;11.346;2022-08-01T05:18:59;3.75;;;2.10;;
11427;SDS011;5770;44.504;11.346;2022-08-01T05:21:27;2.20;;;1.92;;
11427;SDS011;5770;44.504;11.346;2022-08-01T05:23:54;3.55;;;1.90;;
11427;SDS011;5770;44.504;11.346;2022-08-01T05:26:24;3.33;;;1.98;;
11427;SDS011;5770;44.504;11.346;2022-08-01T05:28:51;6.40;;;1.98;;
11427;SDS011;5770;44.504;11.346;2022-08-01T05:31:19;2.38;;;1.67;;
11427;SDS011;5770;44.504;11.346;2022-08-01T05:33:46;2.60;;;1.95;;
11427;SDS011;5770;44.504;11.346;2022-08-01T05:36:13;3.80;;;2.33;;
11427;SDS011;5770;44.504;11.346;2022-08-01T05:38:40;2.75;;;1.90;;
11427;SDS011;5770;44.504;11.346;2022-08-01T05:41:07;7.22;;;2.10;;
11427;SDS011;5770;44.504;11.346;2022-08-01T05:43:35;6.25;;;1.95;;
11427;SDS011;5770;44.504;11.346;2022-08-01T05:46:02;3.83;;;1.95;;
11427;SDS011;5770;44.504;11.346;2022-08-01T05:48:29;5.97;;;1.80;;
11427;SDS011;5770;44.504;11.346;2022-08-01T05:50:56;3.00;;;2.03;;
11427;SDS011;5770;44.504;11.346;2022-08-01T05:53:23;3.72;;;2.03;;
11427;SDS011;5770;44.504;11.346;2022-08-01T05:55:51;6.50;;;2.00;;
11427;SDS011;5770;44.504;11.346;2022-08-01T05:58:18;4.75;;;2.22;;
11427;SDS011;5770;44.504;11.346;2022-08-01T06:00:46;2.47;;;2.00;;
11427;SDS011;5770;44.504;11.346;2022-08-01T06:03:13;2.38;;;1.90;;
11427;SDS011;5770;44.504;11.346;2022-08-01T06:05:40;2.85;;;1.95;;
11427;SDS011;5770;44.504;11.346;2022-08-01T06:08:07;2.00;;;1.80;;
11427;SDS011;5770;44.504;11.346;2022-08-01T06:10:34;2.92;;;1.90;;
11427;SDS011;5770;44.504;11.346;2022-08-01T06:13:01;3.40;;;1.95;;
11427;SDS011;5770;44.504;11.346;2022-08-01T06:15:29;2.70;;;2.10;;
11427;SDS011;5770;44.504;11.346;2022-08-01T06:17:57;3.22;;;2.10;;
11427;SDS011;5770;44.504;11.346;2022-08-01T06:20:24;4.40;;;2.05;;
11427;SDS011;5770;44.504;11.346;2022-08-01T06:22:52;2.15;;;1.70;;
11427;SDS011;5770;44.504;11.346;2022-08-01T06:25:19;5.88;;;2.00;;
11427;SDS011;5770;44.504;11.346;2022-08-01T06:27:47;3.50;;;2.00;;
11427;SDS011;5770;44.504;11.346;2022-08-01T06:30:14;4.43;;;1.85;;
11427;SDS011;5770;44.504;11.346;2022-08-01T06:32:42;5.88;;;1.95;;
11427;SDS011;5770;44.504;11.346;2022-08-01T06:35:10;4.32;;;2.10;;
11427;SDS011;5770;44.504;11.346;2022-08-01T06:37:37;3.50;;;2.00;;
11427;SDS011;5770;44.504;11.346;2022-08-01T06:40:05;2.53;;;2.28;;
11427;SDS011;5770;44.504;11.346;2022-08-01T06:42:34;2.20;;;1.70;;
11427;SDS011;5770;44.504;11.346;2022-08-01T06:45:01;3.65;;;2.05;;
11427;SDS011;5770;44.504;11.346;2022-08-01T06:47:28;6.80;;;2.33;;
11427;SDS011;5770;44.504;11.346;2022-08-01T06:49:56;4.80;;;2.15;;
11427;SDS011;5770;44.504;11.346;2022-08-01T06:52:24;5.63;;;2.15;;
11427;SDS011;5770;44.504;11.346;2022-08-01T06:54:51;7.63;;;2.30;;
11427;SDS011;5770;44.504;11.346;2022-08-01T06:57:19;3.22;;;2.10;;
11427;SDS011;5770;44.504;11.346;2022-08-01T06:59:46;6.55;;;2.13;;
11427;SDS011;5770;44.504;11.346;2022-08-01T07:02:13;4.57;;;2.10;;
11427;SDS011;5770;44.504;11.346;2022-08-01T07:04:40;3.95;;;1.98;;
11427;SDS011;5770;44.504;11.346;2022-08-01T07:07:07;5.43;;;1.90;;
11427;SDS011;5770;44.504;11.346;2022-08-01T07:09:36;3.83;;;1.90;;
11427;SDS011;5770;44.504;11.346;2022-08-01T07:12:06;2.80;;;1.90;;
11427;SDS011;5770;44.504;11.346;2022-08-01T07:14:33;3.92;;;1.75;;
11427;SDS011;5770;44.504;11.346;2022-08-01T07:17:00;4.05;;;1.70;;
11427;SDS011;5770;44.504;11.346;2022-08-01T07:19:27;2.67;;;1.98;;
11427;SDS011;5770;44.504;11.346;2022-08-01T07:21:54;4.18;;;1.98;;
11427;SDS011;5770;44.504;11.346;2022-08-01T07:24:21;2.95;;;1.65;;
11427;SDS011;5770;44.504;11.346;2022-08-01T07:26:51;2.33;;;1.88;;
11427;SDS011;5770;44.504;11.346;2022-08-01T07:29:19;2.22;;;1.80;;
11427;SDS011;5770;44.504;11.346;2022-08-01T07:31:46;4.60;;;2.05;;
11427;SDS011;5770;44.504;11.346;2022-08-01T07:34:13;2.55;;;1.88;;
11427;SDS011;5770;44.504;11.346;2022-08-01T07:36:40;3.80;;;2.03;;
11427;SDS011;5770;44.504;11.346;2022-08-01T07:39:07;4.85;;;2.20;;
11427;SDS011;5770;44.504;11.346;2022-08-01T07:41:34;4.85;;;2.58;;
11427;SDS011;5770;44.504;11.346;2022-08-01T07:44:03;4.93;;;2.30;;
11427;SDS011;5770;44.504;11.346;2022-08-01T07:46:30;3.40;;;2.08;;
11427;SDS011;5770;44.504;11.346;2022-08-01T07:48:58;5.63;;;2.15;;
11427;SDS011;5770;44.504;11.346;2022-08-01T07:51:25;8.38;;;2.20;;
11427;SDS011;5770;44.504;11.346;2022-08-01T07:53:52;2.30;;;2.10;;
11427;SDS011;5770;44.504;11.346;2022-08-01T07:56:19;5.22;;;2.20;;
11427;SDS011;5770;44.504;11.346;2022-08-01T07:58:49;4.32;;;2.53;;
11427;SDS011;5770;44.504;11.346;2022-08-01T08:01:17;35.00;;;3.47;;
11427;SDS011;5770;44.504;11.346;2022-08-01T08:03:44;7.13;;;2.42;;
11427;SDS011;5770;44.504;11.346;2022-08-01T08:06:11;6.45;;;2.53;;
11427;SDS011;5770;44.504;11.346;2022-08-01T08:08:39;3.50;;;2.03;;
11427;SDS011;5770;44.504;11.346;2022-08-01T08:11:06;4.50;;;2.13;;
11427;SDS011;5770;44.504;11.346;2022-08-01T08:13:33;3.65;;;2.10;;
11427;SDS011;5770;44.504;11.346;2022-08-01T08:16:00;3.45;;;2.00;;
11427;SDS011;5770;44.504;11.346;2022-08-01T08:18:28;2.60;;;2.40;;
11427;SDS011;5770;44.504;11.346;2022-08-01T08:20:55;16.02;;;2.85;;
11427;SDS011;5770;44.504;11.346;2022-08-01T08:23:22;8.57;;;2.50;;
11427;SDS011;5770;44.504;11.346;2022-08-01T08:26:10;3.80;;;1.83;;
11427;SDS011;5770;44.504;11.346;2022-08-01T08:28:37;4.65;;;2.20;;
11427;SDS011;5770;44.504;11.346;2022-08-01T08:31:05;6.90;;;2.22;;
11427;SDS011;5770;44.504;11.346;2022-08-01T08:33:33;6.47;;;2.45;;
11427;SDS011;5770;44.504;11.346;2022-08-01T08:36:00;5.68;;;1.98;;
11427;SDS011;5770;44.504;11.346;2022-08-01T08:38:27;5.05;;;2.10;;
11427;SDS011;5770;44.504;11.346;2022-08-01T08:40:54;3.17;;;1.98;;
11427;SDS011;5770;44.504;11.346;2022-08-01T08:43:22;3.53;;;2.22;;
11427;SDS011;5770;44.504;11.346;2022-08-01T08:45:50;3.17;;;2.30;;
11427;SDS011;5770;44.504;11.346;2022-08-01T08:48:18;2.40;;;2.20;;
11427;SDS011;5770;44.504;11.346;2022-08-01T08:50:47;3.53;;;2.42;;
11427;SDS011;5770;44.504;11.346;2022-08-01T08:53:15;4.72;;;2.65;;
11427;SDS011;5770;44.504;11.346;2022-08-01T08:55:42;7.10;;;2.95;;
11427;SDS011;5770;44.504;11.346;2022-08-01T08:58:10;8.05;;;2.70;;
11427;SDS011;5770;44.504;11.346;2022-08-01T09:00:39;5.45;;;3.10;;
11427;SDS011;5770;44.504;11.346;2022-08-01T09:03:06;3.95;;;2.63;;
11427;SDS011;5770;44.504;11.346;2022-08-01T09:05:34;7.93;;;2.60;;
11427;SDS011;5770;44.504;11.346;2022-08-01T09:08:07;5.57;;;2.80;;
11427;SDS011;5770;44.504;11.346;2022-08-01T09:10:35;5.15;;;2.95;;
11427;SDS011;5770;44.504;11.346;2022-08-01T09:13:06;5.20;;;2.47;;
11427;SDS011;5770;44.504;11.346;2022-08-01T09:15:39;5.90;;;2.72;;
11427;SDS011;5770;44.504;11.346;2022-08-01T09:18:07;5.57;;;2.72;;
11427;SDS011;5770;44.504;11.346;2022-08-01T09:20:34;8.07;;;2.53;;
11427;SDS011;5770;44.504;11.346;2022-08-01T09:23:01;5.82;;;2.60;;
11427;SDS011;5770;44.504;11.346;2022-08-01T09:25:31;2.95;;;2.70;;
11427;SDS011;5770;44.504;11.346;2022-08-01T09:28:16;5.68;;;2.63;;
11427;SDS011;5770;44.504;11.346;2022-08-01T09:30:43;3.35;;;2.70;;
11427;SDS011;5770;44.504;11.346;2022-08-01T09:33:11;5.25;;;2.80;;
11427;SDS011;5770;44.504;11.346;2022-08-01T09:35:38;4.38;;;2.78;;
11427;SDS011;5770;44.504;11.346;2022-08-01T09:38:13;3.70;;;2.90;;
11427;SDS011;5770;44.504;11.346;2022-08-01T09:40:49;6.38;;;3.42;;
11427;SDS011;5770;44.504;11.346;2022-08-01T09:43:17;5.68;;;3.97;;
11427;SDS011;5770;44.504;11.346;2022-08-01T09:45:45;4.93;;;3.90;;
11427;SDS011;5770;44.504;11.346;2022-08-01T09:48:13;6.15;;;4.20;;
11427;SDS011;5770;44.504;11.346;2022-08-01T09:50:41;5.38;;;4.97;;
11427;SDS011;5770;44.504;11.346;2022-08-01T09:53:09;6.03;;;4.82;;
11427;SDS011;5770;44.504;11.346;2022-08-01T09:55:37;5.97;;;5.38;;
11427;SDS011;5770;44.504;11.346;2022-08-01T10:00:36;5.75;;;5.10;;
11427;SDS011;5770;44.504;11.346;2022-08-01T10:03:18;6.82;;;4.82;;
11427;SDS011;5770;44.504;11.346;2022-08-01T10:05:46;6.32;;;4.80;;
11427;SDS011;5770;44.504;11.346;2022-08-01T10:08:14;5.03;;;4.63;;
11427;SDS011;5770;44.504;11.346;2022-08-01T10:10:41;4.60;;;4.18;;
11427;SDS011;5770;44.504;11.346;2022-08-01T10:13:11;5.65;;;4.47;;
11427;SDS011;5770;44.504;11.346;2022-08-01T10:15:40;5.60;;;3.85;;
11427;SDS011;5770;44.504;11.346;2022-08-01T10:18:07;4.45;;;3.97;;
11427;SDS011;5770;44.504;11.346;2022-08-01T10:20:37;4.88;;;4.40;;
11427;SDS011;5770;44.504;11.346;2022-08-01T10:23:04;18.70;;;3.97;;
11427;SDS011;5770;44.504;11.346;2022-08-01T10:25:34;4.57;;;3.35;;
11427;SDS011;5770;44.504;11.346;2022-08-01T10:28:12;4.57;;;3.95;;
11427;SDS011;5770;44.504;11.346;2022-08-01T10:30:42;4.50;;;3.40;;
11427;SDS011;5770;44.504;11.346;2022-08-01T10:33:10;10.93;;;3.35;;
11427;SDS011;5770;44.504;11.346;2022-08-01T10:35:39;7.97;;;3.47;;
11427;SDS011;5770;44.504;11.346;2022-08-01T10:38:06;6.53;;;3.85;;
11427;SDS011;5770;44.504;11.346;2022-08-01T10:40:41;5.70;;;3.75;;
11427;SDS011;5770;44.504;11.346;2022-08-01T10:43:09;6.18;;;3.55;;
11427;SDS011;5770;44.504;11.346;2022-08-01T10:45:38;6.70;;;2.60;;
11427;SDS011;5770;44.504;11.346;2022-08-01T10:48:09;4.68;;;2.50;;
11427;SDS011;5770;44.504;11.346;2022-08-01T10:50:41;5.35;;;2.80;;
11427;SDS011;5770;44.504;11.346;2022-08-01T10:53:11;3.97;;;2.70;;
11427;SDS011;5770;44.504;11.346;2022-08-01T10:55:46;5.55;;;2.85;;
11427;SDS011;5770;44.504;11.346;2022-08-01T10:58:19;6.85;;;3.50;;
11427;SDS011;5770;44.504;11.346;2022-08-01T11:00:48;5.10;;;2.80;;
11427;SDS011;5770;44.504;11.346;2022-08-01T11:03:35;2.90;;;2.58;;
11427;SDS011;5770;44.504;11.346;2022-08-01T11:06:03;3.70;;;2.55;;
11427;SDS011;5770;44.504;11.346;2022-08-01T11:08:30;2.75;;;2.50;;
11427;SDS011;5770;44.504;11.346;2022-08-01T11:11:02;4.80;;;2.20;;
11427;SDS011;5770;44.504;11.346;2022-08-01T11:16:34;3.80;;;2.10;;
11427;SDS011;5770;44.504;11.346;2022-08-01T11:19:02;5.80;;;3.08;;
11427;SDS011;5770;44.504;11.346;2022-08-01T11:27:26;4.03;;;2.70;;
11427;SDS011;5770;44.504;11.346;2022-08-01T11:32:56;3.85;;;2.17;;
11427;SDS011;5770;44.504;11.346;2022-08-01T11:35:24;2.40;;;1.92;;
11427;SDS011;5770;44.504;11.346;2022-08-01T11:37:52;2.47;;;2.05;;
11427;SDS011;5770;44.504;11.346;2022-08-01T11:40:22;2.55;;;2.35;;
11427;SDS011;5770;44.504;11.346;2022-08-01T11:42:50;2.30;;;2.10;;
11427;SDS011;5770;44.504;11.346;2022-08-01T11:45:47;3.33;;;2.10;;
11427;SDS011;5770;44.504;11.346;2022-08-01T11:48:20;2.20;;;2.00;;
11427;SDS011;5770;44.504;11.346;2022-08-01T11:50:49;3.47;;;2.40;;
11427;SDS011;5770;44.504;11.346;2022-08-01T11:53:16;3.25;;;2.35;;
11427;SDS011;5770;44.504;11.346;2022-08-01T11:55:46;4.22;;;1.90;;
11427;SDS011;5770;44.504;11.346;2022-08-01T11:58:14;2.30;;;2.10;;
11427;SDS011;5770;44.504;11.346;2022-08-01T12:00:49;2.63;;;2.22;;
11427;SDS011;5770;44.504;11.346;2022-08-01T12:03:22;3.28;;;2.00;;
11427;SDS011;5770;44.504;11.346;2022-08-01T12:05:52;2.50;;;2.00;;
11427;SDS011;5770;44.504;11.346;2022-08-01T12:08:26;3.40;;;2.10;;
11427;SDS011;5770;44.504;11.346;2022-08-01T12:10:53;2.08;;;1.98;;
11427;SDS011;5770;44.504;11.346;2022-08-01T12:13:21;4.43;;;2.10;;
11427;SDS011;5770;44.504;11.346;2022-08-01T12:15:48;2.40;;;2.03;;
11427;SDS011;5770;44.504;11.346;2022-08-01T12:18:16;2.25;;;1.90;;
11427;SDS011;5770;44.504;11.346;2022-08-01T12:20:45;2.58;;;1.80;;
11427;SDS011;5770;44.504;11.346;2022-08-01T12:23:13;12.82;;;2.50;;
11427;SDS011;5770;44.504;11.346;2022-08-01T12:25:41;5.05;;;2.50;;
11427;SDS011;5770;44.504;11.346;2022-08-01T12:28:10;3.22;;;2.10;;
11427;SDS011;5770;44.504;11.346;2022-08-01T12:30:39;5.05;;;1.90;;
11427;SDS011;5770;44.504;11.346;2022-08-01T12:33:07;2.38;;;2.17;;
11427;SDS011;5770;44.504;11.346;2022-08-01T12:35:37;3.10;;;2.00;;
11427;SDS011;5770;44.504;11.346;2022-08-01T12:38:13;2.30;;;2.10;;
11427;SDS011;5770;44.504;11.346;2022-08-01T12:40:42;5.47;;;1.90;;
11427;SDS011;5770;44.504;11.346;2022-08-01T12:43:15;2.15;;;1.88;;
11427;SDS011;5770;44.504;11.346;2022-08-01T12:45:43;2.47;;;1.98;;
11427;SDS011;5770;44.504;11.346;2022-08-01T12:48:12;5.78;;;2.05;;
11427;SDS011;5770;44.504;11.346;2022-08-01T12:50:40;2.67;;;2.13;;
11427;SDS011;5770;44.504;11.346;2022-08-01T12:53:10;2.58;;;1.90;;
11427;SDS011;5770;44.504;11.346;2022-08-01T12:55:43;3.67;;;2.10;;
11427;SDS011;5770;44.504;11.346;2022-08-01T12:58:12;3.38;;;1.85;;
11427;SDS011;5770;44.504;11.346;2022-08-01T13:00:41;3.13;;;2.10;;
11427;SDS011;5770;44.504;11.346;2022-08-01T13:03:10;1.73;;;1.58;;
11427;SDS011;5770;44.504;11.346;2022-08-01T13:05:44;3.38;;;2.00;;
11427;SDS011;5770;44.504;11.346;2022-08-01T13:08:15;2.30;;;1.70;;
11427;SDS011;5770;44.504;11.346;2022-08-01T13:10:43;4.43;;;1.80;;
11427;SDS011;5770;44.504;11.346;2022-08-01T13:13:11;2.13;;;1.92;;
11427;SDS011;5770;44.504;11.346;2022-08-01T13:15:39;1.80;;;1.70;;
11427;SDS011;5770;44.504;11.346;2022-08-01T13:18:24;4.65;;;1.85;;
11427;SDS011;5770;44.504;11.346;2022-08-01T13:21:12;2.13;;;1.92;;
11427;SDS011;5770;44.504;11.346;2022-08-01T13:23:42;3.33;;;1.88;;
11427;SDS011;5770;44.504;11.346;2022-08-01T13:26:40;5.95;;;1.90;;
11427;SDS011;5770;44.504;11.346;2022-08-01T13:29:08;3.13;;;1.80;;
11427;SDS011;5770;44.504;11.346;2022-08-01T13:31:37;7.00;;;1.90;;
11427;SDS011;5770;44.504;11.346;2022-08-01T13:34:05;1.83;;;1.73;;
11427;SDS011;5770;44.504;11.346;2022-08-01T13:36:32;3.97;;;2.00;;
11427;SDS011;5770;44.504;11.346;2022-08-01T13:39:01;5.10;;;2.00;;
11427;SDS011;5770;44.504;11.346;2022-08-01T13:41:45;6.75;;;1.90;;
11427;SDS011;5770;44.504;11.346;2022-08-01T13:44:13;2.72;;;1.60;;
11427;SDS011;5770;44.504;11.346;2022-08-01T13:46:41;2.35;;;1.70;;
11427;SDS011;5770;44.504;11.346;2022-08-01T13:49:09;1.98;;;1.60;;
11427;SDS011;5770;44.504;11.346;2022-08-01T13:51:37;3.30;;;1.75;;
11427;SDS011;5770;44.504;11.346;2022-08-01T13:54:06;4.05;;;1.52;;
11427;SDS011;5770;44.504;11.346;2022-08-01T13:56:33;5.43;;;1.70;;
11427;SDS011;5770;44.504;11.346;2022-08-01T13:59:00;1.60;;;1.50;;
11427;SDS011;5770;44.504;11.346;2022-08-01T14:01:28;5.70;;;1.90;;
11427;SDS011;5770;44.504;11.346;2022-08-01T14:03:55;5.07;;;1.95;;
11427;SDS011;5770;44.504;11.346;2022-08-01T14:06:22;2.03;;;1.70;;
11427;SDS011;5770;44.504;11.346;2022-08-01T14:08:49;1.50;;;1.40;;
11427;SDS011;5770;44.504;11.346;2022-08-01T14:11:17;1.60;;;1.50;;
11427;SDS011;5770;44.504;11.346;2022-08-01T14:13:44;2.97;;;1.63;;
11427;SDS011;5770;44.504;11.346;2022-08-01T14:16:11;3.38;;;1.50;;
11427;SDS011;5770;44.504;11.346;2022-08-01T14:18:38;1.77;;;1.30;;
11427;SDS011;5770;44.504;11.346;2022-08-01T14:21:05;4.90;;;1.70;;
11427;SDS011;5770;44.504;11.346;2022-08-01T14:23:32;2.78;;;1.70;;
11427;SDS011;5770;44.504;11.346;2022-08-01T14:26:01;1.85;;;1.50;;
11427;SDS011;5770;44.504;11.346;2022-08-01T14:28:29;3.45;;;1.40;;
11427;SDS011;5770;44.504;11.346;2022-08-01T14:30:57;1.95;;;1.50;;
11427;SDS011;5770;44.504;11.346;2022-08-01T14:33:24;3.70;;;1.45;;
11427;SDS011;5770;44.504;11.346;2022-08-01T14:35:51;8.27;;;1.88;;
11427;SDS011;5770;44.504;11.346;2022-08-01T14:38:19;3.08;;;1.55;;
11427;SDS011;5770;44.504;11.346;2022-08-01T14:40:46;3.75;;;1.50;;
11427;SDS011;5770;44.504;11.346;2022-08-01T14:43:16;2.30;;;1.45;;
11427;SDS011;5770;44.504;11.346;2022-08-01T14:45:44;4.78;;;1.70;;
11427;SDS011;5770;44.504;11.346;2022-08-01T14:48:15;3.50;;;1.55;;
11427;SDS011;5770;44.504;11.346;2022-08-01T14:50:43;3.00;;;1.50;;
11427;SDS011;5770;44.504;11.346;2022-08-01T14:53:10;1.38;;;1.27;;
11427;SDS011;5770;44.504;11.346;2022-08-01T14:55:37;4.10;;;1.80;;
11427;SDS011;5770;44.504;11.346;2022-08-01T14:58:05;1.70;;;1.60;;
11427;SDS011;5770;44.504;11.346;2022-08-01T15:00:32;1.60;;;1.50;;
11427;SDS011;5770;44.504;11.346;2022-08-01T15:03:00;1.73;;;1.50;;
11427;SDS011;5770;44.504;11.346;2022-08-01T15:05:27;2.38;;;1.20;;
11427;SDS011;5770;44.504;11.346;2022-08-01T15:07:55;2.47;;;1.17;;
11427;SDS011;5770;44.504;11.346;2022-08-01T15:10:22;1.88;;;1.20;;
11427;SDS011;5770;44.504;11.346;2022-08-01T15:12:49;1.60;;;1.50;;
11427;SDS011;5770;44.504;11.346;2022-08-01T15:15:16;1.30;;;1.20;;